Stunt Ranch Reserve, Santa Monica Mtns, California Weather observations

Data are for 10 minute period ending at time listed.
 Day   Time   Solar   Ave.   Ave.  Ave.  Vector  Max.   Baro.   Total    
  of    of     Rad.   Air    Rel.  Wind   Wind   Wind  Press.  Precip.   
Year   Day            Temp.  Hum.  Speed  Dir.   Gust                    
2018   (PST)  Kw/m2    F      %     mph   deg.    mph    mb.     in.     
-------------------------------------------------------------------------
 262    0:00   0.00   62.0    45    0.8   280     2.2   965.3    0.00 
 262    0:10   0.00   61.1    46    0.5   122     1.8   965.3    0.00 
 262    0:20   0.00   61.8    45    1.5   153     2.8   965.2    0.00 
 262    0:30   0.00   62.2    43    1.5   274     3.1   965.2    0.00 
 262    0:40   0.00   61.2    46    0.8   277     3.7   965.3    0.00 
 262    0:50   0.00   60.3    48    0.2   105     1.2   965.3    0.00 
 262    1:00   0.00   60.7    45    0.8   133     1.9   965.2    0.00 
 262    1:10   0.00   61.3    44    1.1   268     2.1   965.1    0.00 
 262    1:20   0.00   61.0    46    0.1   289     0.7   965.1    0.00 
 262    1:30   0.00   60.2    46    0.2    34     1.5   965.1    0.00 
 262    1:40   0.00   59.9    48    0.9   334     2.3   965.0    0.00 
 262    1:50   0.00   59.8    48    1.5   275     2.4   964.9    0.00 
 262    2:00   0.00   58.9    49    1.0   254     3.4   964.9    0.00 
 262    2:10   0.00   58.1    49    1.5   130     3.1   964.9    0.00 
 262    2:20   0.00   58.4    48    2.0   122     3.7   964.8    0.00 
 262    2:30   0.00   59.0    47    1.2   133     2.2   964.7    0.00 
 262    2:40   0.00   59.1    48    0.7   295     1.7   964.6    0.00 
 262    2:50   0.00   59.0    49    0.9   263     1.8   964.5    0.00 
 262    3:00   0.00   59.1    47    1.2   282     3.1   964.5    0.00 
 262    3:10   0.00   58.0    50    3.2   269     4.9   964.5    0.00 
 262    3:20   0.00   56.9    53    1.1   140     2.8   964.5    0.00 
 262    3:30   0.00   57.2    50    1.7   144     2.8   964.3    0.00 
 262    3:40   0.00   57.9    52    1.6   254     2.8   964.4    0.00 
 262    3:50   0.00   57.2    54    1.5   166     2.8   964.4    0.00 
 262    4:00   0.00   56.6    56    2.5   277     3.5   964.5    0.00 
 262    4:10   0.00   56.4    58    0.8   262     2.0   964.6    0.00 
 262    4:20   0.00   56.5    57    2.0   125     3.9   964.6    0.00 
 262    4:30   0.00   56.8    56    1.8   137     3.4   964.5    0.00 
 262    4:40   0.00   57.3    54    1.0   220     2.4   964.4    0.00 
 262    4:50   0.00   57.8    53    2.2   274     3.7   964.3    0.00 
 262    5:00   0.00   56.7    61    1.8   282     5.0   964.4    0.00 
 262    5:10   0.00   56.4    67    1.0   296     2.4   964.5    0.00 
 262    5:20   0.00   55.8    68    2.3   276     5.1   964.6    0.00 
 262    5:30   0.00   55.7    68    1.9   152     4.1   964.8    0.00 
 262    5:40   0.00   57.0    68    2.4   114     4.2   964.8    0.00 
 262    5:50   0.01   57.0    66    2.3   122     4.6   964.9    0.00 
 262    6:00   0.01   57.2    66    2.4   116     5.6   964.8    0.00 
 262    6:10   0.01   58.0    65    0.9   277     1.8   964.8    0.00 
 262    6:20   0.02   57.1    65    0.7   352     2.0   964.9    0.00 
 262    6:30   0.02   56.4    67    1.3   312     2.9   965.0    0.00 
 262    6:40   0.14   57.8    66    0.1   329     1.0   965.1    0.00 
 262    6:50   0.18   62.2    57    0.3   108     1.5   965.2    0.00 
 262    7:00   0.22   65.4    52    0.6   105     2.0   965.2    0.00 
 262    7:10   0.25   66.3    50    0.8    31     2.2   965.2    0.00 
 262    7:20   0.29   66.5    49    1.0     4     2.3   965.3    0.00 
 262    7:30   0.33   67.3    48    2.1   297     3.5   965.3    0.00 
 262    7:40   0.36   68.8    47    1.0   334     3.0   965.4    0.00 
 262    7:50   0.40   69.1    46    1.6   292     2.5   965.4    0.00 
 262    8:00   0.43   70.4    44    1.0   309     1.8   965.5    0.00 
 262    8:10   0.46   70.4    44    1.0   308     2.3   965.5    0.00 
 262    8:20   0.50   71.5    43    1.7   296     2.9   965.4    0.00 
 262    8:30   0.53   73.3    40    1.3   302     2.9   965.4    0.00 
 262    8:40   0.56   73.4    41    2.3   288     3.7   965.4    0.00 
 262    8:50   0.59   74.1    40    2.2   283     4.1   965.4    0.00 
 262    9:00   0.62   75.2    38    2.6   282     5.1   965.4    0.00 
 262    9:10   0.64   76.0    37    3.3   282     4.8   965.4    0.00 
 262    9:20   0.67   77.5    35    2.8   278     5.2   965.5    0.00 
 262    9:30   0.70   79.4    33    3.2   283     6.0   965.4    0.00 
 262    9:40   0.72   79.8    32    2.7   282     5.3   965.4    0.00 
 262    9:50   0.74   81.5    29    3.9   278     6.6   965.4    0.00 
 262   10:00   0.76   83.3    25    3.9   280     8.0   965.3    0.00 
 262   10:10   0.78   84.1    24    3.4   282     6.4   965.2    0.00 
 262   10:20   0.80   84.5    24    4.0   286     7.1   965.1    0.00 
 262   10:30   0.82   85.5    24    3.5   289     7.4   965.0    0.00 
 262   10:40   0.83   85.4    22    4.0   284     8.3   964.9    0.00 
 262   10:50   0.84   86.1    20    3.3   288     7.2   964.9    0.00 
 262   11:00   0.85   86.6    23    3.9   292     8.8   964.8    0.00 
 262   11:10   0.86   86.8    27    3.7   288     7.9   964.8    0.00 
 262   11:20   0.86   86.8    30    3.5   299     7.7   964.7    0.00 
 262   11:30   0.86   86.8    31    3.7   303     7.5   964.5    0.00 
 262   11:40   0.86   86.2    32    4.3   303     9.6   964.5    0.00 
 262   11:50   0.87   85.1    33    4.6   314     8.6   964.5    0.00 
 262   12:00   0.87   85.6    32    5.0   320     9.3   964.3    0.00 
 262   12:10   0.87   86.6    29    4.6   312    10.5   964.1    0.00 
 262   12:20   0.86   86.4    32    4.3   310     9.7   964.1    0.00 
 262   12:30   0.85   86.6    32    3.6   312     8.8   964.0    0.00 
 262   12:40   0.83   87.2    31    3.8   306     9.0   963.9    0.00 
 262   12:50   0.79   86.9    31    3.9   299    10.1   963.8    0.00 
 262   13:00   0.81   88.2    31    3.9   284     8.5   963.6    0.00 
 262   13:10   0.80   89.2    31    3.9   289     9.2   963.6    0.00 
 262   13:20   0.78   88.7    30    3.1   298     8.3   963.4    0.00 
 262   13:30   0.76   88.4    31    3.6   292     9.0   963.2    0.00 
 262   13:40   0.74   88.7    31    3.8   287     8.0   963.2    0.00 
 262   13:50   0.72   88.2    30    4.5   282     9.2   963.0    0.00 
 262   14:00   0.70   89.0    30    4.0   288     8.1   962.9    0.00 
 262   14:10   0.68   89.0    31    3.0   297     8.0   962.8    0.00 
 262   14:20   0.65   89.5    31    3.0   298     8.5   962.7    0.00 
 262   14:30   0.63   88.8    32    3.7   299     7.6   962.6    0.00 
 262   14:40   0.60   88.6    34    2.8   303     7.7   962.6    0.00 
 262   14:50   0.57   88.1    35    3.0   298     8.0   962.4    0.00 
 262   15:00   0.54   87.3    35    3.2   289     7.7   962.3    0.00 
 262   15:10   0.51   86.3    36    3.4   288     8.0   962.2    0.00 
 262   15:20   0.48   87.2    34    3.1   284     7.4   962.2    0.00 
 262   15:30   0.45   87.7    34    3.8   282     7.7   962.1    0.00 
 262   15:40   0.41   87.3    35    3.0   283     7.2   962.2    0.00 
 262   15:50   0.38   87.0    35    3.7   286     6.9   962.1    0.00 
 262   16:00   0.35   86.4    34    2.3   288     6.2   962.0    0.00 
 262   16:10   0.31   86.2    34    2.2   296     6.7   961.9    0.00 
 262   16:20   0.28   85.6    33    3.3   287     6.9   961.8    0.00 
 262   16:30   0.24   85.2    33    2.9   288     7.4   961.8    0.00 
 262   16:40   0.21   84.1    34    2.9   282     6.9   961.9    0.00 
 262   16:50   0.18   82.8    35    2.4   284     6.2   961.9    0.00 
 262   17:00   0.14   81.8    37    2.3   293     6.2   961.8    0.00 
 262   17:10   0.12   80.1    40    2.4   286     6.3   961.9    0.00 
 262   17:20   0.08   79.0    42    2.2   285     4.8   961.9    0.00 
 262   17:30   0.05   77.2    47    2.8   272     5.0   962.0    0.00 
 262   17:40   0.02   74.9    48    2.0   266     4.4   962.1    0.00 
 262   17:50   0.01   74.0    44    1.8   269     4.7   962.0    0.00 
 262   18:00   0.01   73.5    45    1.1   262     2.1   962.0    0.00 
 262   18:10   0.00   72.2    47    0.6   256     1.8   962.1    0.00 
 262   18:20   0.00   71.2    48    0.0   306     0.1   962.2    0.00 
 262   18:30   0.00   70.6    50    0.2   336     1.0   962.2    0.00 
 262   18:40   0.00   69.7    51    0.5   271     2.0   962.3    0.00 
 262   18:50   0.00   69.1    52    1.7   250     2.6   962.4    0.00 
 262   19:00   0.00   68.6    52    1.7   248     2.4   962.4    0.00 
 262   19:10   0.00   67.9    53    1.5   274     2.3   962.4    0.00 
 262   19:20   0.00   67.0    55    0.1   255     1.4   962.6    0.00 
 262   19:30   0.00   66.4    56    1.4   161     2.3   962.7    0.00 
 262   19:40   0.00   66.4    57    0.4   295     1.5   962.8    0.00 
 262   19:50   0.00   66.1    57    0.2   218     1.2   962.9    0.00 
 262   20:00   0.00   65.4    57    2.1   148     2.8   963.0    0.00 
 262   20:10   0.00   65.5    58    1.4   151     2.4   963.1    0.00 
 262   20:20   0.00   65.8    58    1.0   236     1.6   963.1    0.00 
 262   20:30   0.00   65.6    58    0.3   306     1.0   963.2    0.00 
 262   20:40   0.00   65.6    56    0.0     0     0.0   963.2    0.00 
 262   20:50   0.00   65.5    57    0.0     0     0.0   963.2    0.00 
 262   21:00   0.00   65.9    56    0.0     0     0.0   963.2    0.00 
 262   21:10   0.00   65.9    57    0.0     0     0.0   963.2    0.00 
 262   21:20   0.00   65.9    57    0.2   275     1.0   963.2    0.00 
 262   21:30   0.00   65.9    57    1.6   277     3.0   963.2    0.00 
 262   21:40   0.00   65.4    58    2.0   288     3.8   963.2    0.00 
 262   21:50   0.00   64.8    60    1.3   280     3.3   963.3    0.00 
 262   22:00   0.00   64.2    60    1.0   250     2.6   963.3    0.00 

Return to Stunt Ranch Reserve graphs page.


Western Regional Climate Center,wrcc@dri.edu